createdAt,value
2022-11-17T00:02:19.701Z,89.63
2022-11-17T00:05:23.644Z,89.67
2022-11-17T00:08:26.120Z,89.50
2022-11-17T00:11:48.622Z,89.38
2022-11-17T00:14:52.065Z,89.28
2022-11-17T00:18:13.308Z,89.28
2022-11-17T00:21:18.946Z,89.20
2022-11-17T00:24:23.755Z,88.90
2022-11-17T00:27:26.157Z,89.03
2022-11-17T00:30:51.684Z,88.77
2022-11-17T00:34:08.007Z,88.74
2022-11-17T00:37:12.956Z,88.73
2022-11-17T00:40:15.349Z,88.59
2022-11-17T00:43:17.854Z,88.58
2022-11-17T00:46:20.227Z,88.45
2022-11-17T00:49:26.579Z,87.98
2022-11-17T00:52:28.785Z,87.78
2022-11-17T00:55:31.406Z,87.60
2022-11-17T00:58:35.477Z,87.47
2022-11-17T01:01:38.405Z,87.46
2022-11-17T01:04:40.720Z,87.43
2022-11-17T01:07:43.396Z,87.21
2022-11-17T01:10:48.687Z,87.20
2022-11-17T01:13:55.109Z,87.22
2022-11-17T01:16:57.364Z,87.25
2022-11-17T01:19:59.891Z,87.14
2022-11-17T01:23:02.119Z,87.22
2022-11-17T01:26:08.254Z,87.21
2022-11-17T01:29:13.118Z,87.25
2022-11-17T01:32:15.617Z,87.44
2022-11-17T01:35:17.897Z,87.59
2022-11-17T01:38:20.438Z,87.58
2022-11-17T01:41:25.230Z,87.61
2022-11-17T01:44:36.142Z,87.66
2022-11-17T01:47:40.626Z,87.78
2022-11-17T01:50:49.299Z,87.79
2022-11-17T01:53:52.049Z,87.90
2022-11-17T01:57:00.940Z,87.88
2022-11-17T02:00:08.631Z,87.80
2022-11-17T02:03:11.797Z,87.83
2022-11-17T02:06:20.932Z,87.54
2022-11-17T02:09:24.623Z,87.46
2022-11-17T02:12:28.211Z,87.49
2022-11-17T02:15:30.775Z,87.13
2022-11-17T02:18:33.083Z,86.61
2022-11-17T02:22:09.215Z,86.43
2022-11-17T02:25:33.384Z,86.12
2022-11-17T02:28:49.323Z,86.12
2022-11-17T02:32:04.259Z,85.68
2022-11-17T02:35:21.637Z,85.43
2022-11-17T02:38:32.403Z,84.99
2022-11-17T02:41:49.412Z,84.82
2022-11-17T02:44:58.367Z,84.87
2022-11-17T02:48:05.443Z,85.08
2022-11-17T02:51:13.275Z,85.31
2022-11-17T02:54:16.635Z,84.76
2022-11-17T02:57:49.598Z,84.66
2022-11-17T03:00:59.691Z,84.71
2022-11-17T03:04:26.008Z,85.08
2022-11-17T03:07:57.614Z,85.28
2022-11-17T03:11:05.349Z,84.82
2022-11-17T03:14:42.678Z,85.12
2022-11-17T03:17:56.882Z,85.06
2022-11-17T03:21:31.154Z,85.28
2022-11-17T03:24:50.346Z,85.46
2022-11-17T03:27:58.711Z,85.74
2022-11-17T03:31:04.193Z,86.01
2022-11-17T03:34:11.613Z,86.20
2022-11-17T03:37:18.872Z,86.31
2022-11-17T03:40:25.530Z,86.48
2022-11-17T03:43:30.073Z,86.61
2022-11-17T03:46:36.550Z,86.83
2022-11-17T03:49:45.266Z,87.04
2022-11-17T03:52:48.943Z,87.15
2022-11-17T03:56:11.567Z,87.44
2022-11-17T03:59:19.872Z,87.56
2022-11-17T04:02:23.946Z,87.79
2022-11-17T04:05:27.444Z,87.87
2022-11-17T04:08:30.939Z,87.91
2022-11-17T04:11:52.344Z,87.85
2022-11-17T04:15:13.069Z,87.61
2022-11-17T04:18:19.199Z,87.19
2022-11-17T04:21:21.511Z,87.08
2022-11-17T04:24:24.151Z,87.05
2022-11-17T04:27:45.030Z,86.96
2022-11-17T04:30:47.523Z,86.73
2022-11-17T04:33:51.854Z,86.96
2022-11-17T04:36:54.421Z,87.11
2022-11-17T04:39:56.649Z,87.28
2022-11-17T04:42:59.163Z,87.16
2022-11-17T04:46:01.430Z,86.92
2022-11-17T04:49:05.015Z,86.48
2022-11-17T04:52:07.472Z,86.73
2022-11-17T04:55:10.000Z,86.70
2022-11-17T04:58:12.276Z,86.76
2022-11-17T05:01:17.492Z,86.69
2022-11-17T05:04:39.930Z,86.47
2022-11-17T05:07:42.542Z,86.44
2022-11-17T05:11:05.014Z,86.39
2022-11-17T05:14:08.165Z,86.15
2022-11-17T05:17:11.802Z,85.80
2022-11-17T05:20:17.613Z,85.89
2022-11-17T05:23:49.116Z,85.68
2022-11-17T05:26:51.658Z,85.90
2022-11-17T05:29:53.973Z,85.88
2022-11-17T05:32:56.533Z,85.79
2022-11-17T05:35:58.907Z,85.68
2022-11-17T05:39:01.752Z,85.52
2022-11-17T05:42:04.156Z,85.52
2022-11-17T05:45:07.463Z,85.55
2022-11-17T05:48:09.688Z,85.58
2022-11-17T05:51:12.404Z,85.57
2022-11-17T05:54:14.717Z,85.77
2022-11-17T05:57:25.582Z,85.86
2022-11-17T06:00:29.438Z,86.14
2022-11-17T06:03:39.868Z,86.13
2022-11-17T06:06:42.083Z,86.02
2022-11-17T06:09:45.830Z,86.00
2022-11-17T06:12:48.171Z,85.85
2022-11-17T06:15:50.739Z,85.87
2022-11-17T06:19:08.792Z,85.81
2022-11-17T06:22:13.337Z,85.11
2022-11-17T06:25:18.670Z,84.84
2022-11-17T06:28:22.570Z,84.63
2022-11-17T06:31:27.965Z,84.29
2022-11-17T06:34:32.888Z,84.42
2022-11-17T06:37:35.299Z,83.97
2022-11-17T06:40:37.952Z,83.60
2022-11-17T06:43:40.212Z,83.03
2022-11-17T06:46:47.607Z,82.99
2022-11-17T06:49:51.130Z,82.61
2022-11-17T06:53:00.546Z,82.30
2022-11-17T06:56:07.471Z,82.29
2022-11-17T06:59:10.102Z,82.24
2022-11-17T07:02:12.392Z,81.90
2022-11-17T07:05:15.123Z,81.47
2022-11-17T07:08:19.028Z,81.42
2022-11-17T07:11:21.686Z,80.88
2022-11-17T07:14:23.932Z,80.71
2022-11-17T07:17:27.368Z,80.85
2022-11-17T07:20:29.623Z,80.60
2022-11-17T07:23:33.208Z,79.98
2022-11-17T07:26:35.578Z,79.30
2022-11-17T07:29:38.145Z,77.47
2022-11-17T07:32:40.583Z,76.43
2022-11-17T07:35:43.504Z,75.58
2022-11-17T07:38:45.808Z,74.97
2022-11-17T07:41:48.362Z,74.44
2022-11-17T07:44:50.718Z,74.69
2022-11-17T07:47:58.590Z,74.55
2022-11-17T07:51:02.045Z,74.23
2022-11-17T07:54:04.943Z,74.31
2022-11-17T07:57:07.631Z,74.59
2022-11-17T08:00:11.274Z,74.37
2022-11-17T08:03:14.195Z,74.30
2022-11-17T08:06:17.128Z,74.23
2022-11-17T08:09:19.486Z,73.97
2022-11-17T08:12:22.156Z,73.51
2022-11-17T08:15:24.698Z,72.68
2022-11-17T08:18:28.713Z,72.30
2022-11-17T08:21:31.106Z,71.93
2022-11-17T08:24:33.732Z,71.33
2022-11-17T08:27:36.016Z,70.88
2022-11-17T08:30:38.772Z,70.09
2022-11-17T08:33:41.040Z,69.72
2022-11-17T08:36:44.070Z,69.34
2022-11-17T08:39:46.341Z,70.29
2022-11-17T08:43:00.354Z,68.35
2022-11-17T08:46:03.930Z,67.09
2022-11-17T08:49:06.518Z,65.52
2022-11-17T08:52:08.782Z,64.64
2022-11-17T08:55:11.479Z,62.66
2022-11-17T08:58:13.812Z,61.45
2022-11-17T09:01:16.986Z,61.18
2022-11-17T09:04:19.531Z,61.47
2022-11-17T09:07:22.191Z,61.26
2022-11-17T09:10:25.229Z,60.80
2022-11-17T09:13:27.796Z,58.09
2022-11-17T09:16:30.120Z,55.53
2022-11-17T09:19:32.804Z,50.51
2022-11-17T09:22:35.069Z,48.68
2022-11-17T09:25:37.598Z,48.76
2022-11-17T09:28:40.510Z,47.68
2022-11-17T09:31:43.253Z,46.38
2022-11-17T09:34:45.794Z,48.02
2022-11-17T09:37:48.478Z,45.91
2022-11-17T09:40:51.280Z,45.43
2022-11-17T09:44:18.280Z,43.39
2022-11-17T09:47:46.103Z,42.70
2022-11-17T09:50:50.663Z,38.02
2022-11-17T09:53:59.671Z,34.91
2022-11-17T09:57:05.035Z,32.55
2022-11-17T10:00:21.015Z,30.06
2022-11-17T10:03:30.865Z,29.10
2022-11-17T10:06:33.192Z,27.28
2022-11-17T10:09:41.962Z,26.29
2022-11-17T10:12:50.718Z,25.74
2022-11-17T10:16:13.284Z,24.60
2022-11-17T10:19:24.574Z,25.97
2022-11-17T10:22:35.012Z,24.53
2022-11-17T10:25:48.583Z,24.45
2022-11-17T10:29:11.473Z,23.47
2022-11-17T10:32:15.229Z,22.61
2022-11-17T10:35:19.417Z,22.34
2022-11-17T10:38:23.198Z,24.48
2022-11-17T10:41:30.589Z,24.31
2022-11-17T10:44:33.901Z,24.90
2022-11-17T10:47:40.480Z,26.90
2022-11-17T10:51:19.553Z,28.46
2022-11-17T10:54:22.212Z,29.69
2022-11-17T10:57:26.890Z,33.44
2022-11-17T11:00:32.777Z,36.29
2022-11-17T11:03:35.916Z,40.71
2022-11-17T11:06:47.719Z,42.90
2022-11-17T11:09:56.253Z,45.45
2022-11-17T11:13:20.169Z,47.96
2022-11-17T11:16:25.521Z,48.46
2022-11-17T11:19:30.224Z,50.39
2022-11-17T11:22:42.289Z,52.04
2022-11-17T11:25:57.429Z,52.58
2022-11-17T11:29:21.277Z,52.44
2022-11-17T11:32:48.477Z,51.40
2022-11-17T11:36:11.402Z,51.92
2022-11-17T11:39:37.397Z,51.33
2022-11-17T11:42:58.763Z,50.88
2022-11-17T11:46:16.336Z,50.83
2022-11-17T11:49:34.112Z,51.19
2022-11-17T11:52:40.357Z,51.64
2022-11-17T11:55:46.947Z,51.08
2022-11-17T11:58:59.150Z,51.89
2022-11-17T12:02:24.580Z,52.54
2022-11-17T12:06:40.878Z,54.27
2022-11-17T12:09:46.136Z,55.57
2022-11-17T12:12:51.993Z,55.02
2022-11-17T12:16:18.295Z,55.25
2022-11-17T12:19:55.237Z,55.14
2022-11-17T12:23:19.819Z,54.04
2022-11-17T12:26:31.035Z,53.19
2022-11-17T12:29:48.413Z,52.92
2022-11-17T12:32:53.068Z,52.45
2022-11-17T12:36:29.695Z,53.24
2022-11-17T12:40:02.077Z,53.82
2022-11-17T12:43:14.659Z,53.55
2022-11-17T12:46:33.397Z,52.61
2022-11-17T12:50:03.126Z,49.31
2022-11-17T12:53:19.801Z,45.52
2022-11-17T12:56:43.605Z,43.20
2022-11-17T12:59:46.371Z,42.41
2022-11-17T13:03:10.855Z,46.75
2022-11-17T13:09:38.656Z,48.51
2022-11-17T13:12:41.421Z,50.57
2022-11-17T13:15:44.617Z,50.38
2022-11-17T13:18:49.019Z,51.30
2022-11-17T13:21:59.018Z,51.88
2022-11-17T13:25:13.017Z,52.30
2022-11-17T13:28:45.051Z,53.28
2022-11-17T13:31:47.816Z,54.09
2022-11-17T13:34:56.747Z,55.04
2022-11-17T13:38:18.497Z,56.14
2022-11-17T13:49:54.905Z,58.22
2022-11-17T13:53:18.760Z,58.28
2022-11-17T13:56:32.771Z,58.97
2022-11-17T13:59:38.499Z,58.74
2022-11-17T14:02:53.418Z,59.27
2022-11-17T14:05:59.139Z,59.82
2022-11-17T14:09:05.584Z,60.21
2022-11-17T14:12:10.766Z,60.67
2022-11-17T14:15:23.027Z,60.96
2022-11-17T14:18:29.130Z,61.04
2022-11-17T14:21:33.977Z,61.67
2022-11-17T14:24:38.117Z,61.82
2022-11-17T14:27:40.562Z,62.03
2022-11-17T14:30:43.693Z,62.16
2022-11-17T14:33:46.098Z,62.08
2022-11-17T14:36:55.354Z,62.58
2022-11-17T14:40:00.699Z,62.85
2022-11-17T14:43:03.272Z,63.46
2022-11-17T14:46:06.946Z,63.81
2022-11-17T14:49:09.677Z,63.77
2022-11-17T14:52:11.816Z,64.42
2022-11-17T14:55:14.789Z,64.64
2022-11-17T14:58:17.123Z,64.69
2022-11-17T15:01:28.387Z,64.87
2022-11-17T15:07:55.347Z,65.07
2022-11-17T15:10:58.365Z,65.25
2022-11-17T15:14:06.461Z,65.29
2022-11-17T15:17:13.939Z,65.52
2022-11-17T15:20:18.164Z,65.67
2022-11-17T15:23:20.469Z,65.73
2022-11-17T15:26:23.835Z,65.82
2022-11-17T15:29:26.562Z,66.07
2022-11-17T15:32:29.848Z,66.38
2022-11-17T15:35:32.448Z,66.60
2022-11-17T15:38:35.876Z,66.68
2022-11-17T15:41:38.279Z,66.78
2022-11-17T15:44:41.086Z,66.87
2022-11-17T15:47:43.367Z,66.77
2022-11-17T15:50:45.912Z,66.99
2022-11-17T15:53:49.808Z,67.20
2022-11-17T15:56:52.690Z,67.50
2022-11-17T15:59:55.069Z,67.84
2022-11-17T16:02:58.873Z,68.03
2022-11-17T16:06:01.864Z,68.16
2022-11-17T16:09:06.598Z,68.33
2022-11-17T16:12:13.496Z,68.53
2022-11-17T16:15:18.932Z,68.80
2022-11-17T16:18:22.232Z,69.08
2022-11-17T16:21:24.822Z,69.53
2022-11-17T16:24:27.864Z,69.60
2022-11-17T16:27:32.033Z,69.88
2022-11-17T16:30:35.851Z,70.11
2022-11-17T16:33:38.242Z,70.78
2022-11-17T16:36:42.687Z,70.96
2022-11-17T16:39:45.049Z,71.19
2022-11-17T16:42:47.666Z,71.42
2022-11-17T16:45:49.972Z,71.61
2022-11-17T16:48:54.247Z,72.68
2022-11-17T16:51:59.031Z,73.03
2022-11-17T16:55:05.282Z,73.05
2022-11-17T16:58:09.415Z,73.69
2022-11-17T17:01:13.894Z,73.78
2022-11-17T17:04:16.286Z,73.77
2022-11-17T17:07:19.152Z,73.70
2022-11-17T17:10:21.648Z,74.64
2022-11-17T17:13:24.217Z,74.72
2022-11-17T17:16:26.532Z,76.50
2022-11-17T17:19:29.335Z,76.45
2022-11-17T17:22:31.629Z,76.93
2022-11-17T17:25:34.525Z,77.94
2022-11-17T17:28:40.569Z,77.43
2022-11-17T17:31:43.398Z,77.93
2022-11-17T17:34:45.793Z,79.51
2022-11-17T17:37:48.566Z,79.74
2022-11-17T17:40:50.904Z,79.89
2022-11-17T17:43:59.245Z,79.98
2022-11-17T17:47:01.520Z,79.72
2022-11-17T17:50:04.352Z,79.19
2022-11-17T17:53:07.672Z,79.95
2022-11-17T17:56:12.810Z,79.79
2022-11-17T17:59:16.578Z,80.78
2022-11-17T18:02:19.608Z,80.95
2022-11-17T18:05:22.684Z,80.79
2022-11-17T18:08:24.975Z,80.47
2022-11-17T18:11:27.597Z,80.73
2022-11-17T18:14:29.856Z,80.48
2022-11-17T18:17:32.418Z,80.11
2022-11-17T18:20:35.418Z,80.46
2022-11-17T18:23:38.561Z,80.54
2022-11-17T18:26:41.322Z,80.51
2022-11-17T18:29:43.946Z,80.41
2022-11-17T18:32:46.263Z,80.31
2022-11-17T18:35:48.835Z,80.56
2022-11-17T18:38:52.797Z,80.47
2022-11-17T18:41:56.221Z,80.42
2022-11-17T18:44:58.568Z,80.37
2022-11-17T18:48:01.130Z,80.38
2022-11-17T18:51:19.017Z,80.51
2022-11-17T18:54:22.316Z,80.83
2022-11-17T18:57:24.640Z,80.75
2022-11-17T19:00:27.215Z,81.11
2022-11-17T19:03:29.459Z,81.30
2022-11-17T19:06:32.129Z,81.02
2022-11-17T19:09:34.650Z,81.20
2022-11-17T19:12:38.786Z,81.72
2022-11-17T19:15:41.483Z,82.23
2022-11-17T19:18:46.149Z,82.07
2022-11-17T19:21:48.334Z,82.70
2022-11-17T19:24:52.136Z,82.71
2022-11-17T19:27:54.579Z,82.67
2022-11-17T19:31:04.705Z,83.15
2022-11-17T19:34:07.389Z,83.39
2022-11-17T19:37:09.955Z,83.12
2022-11-17T19:40:12.632Z,83.24
2022-11-17T19:43:17.926Z,83.24
2022-11-17T19:46:20.694Z,83.59
2022-11-17T19:49:23.378Z,83.51
2022-11-17T19:52:27.128Z,83.54
2022-11-17T19:55:29.643Z,83.64
2022-11-17T19:58:31.865Z,84.00
2022-11-17T20:01:35.931Z,83.96
2022-11-17T20:04:39.693Z,83.97
2022-11-17T20:07:42.076Z,84.08
2022-11-17T20:10:44.825Z,84.25
2022-11-17T20:13:47.651Z,84.21
2022-11-17T20:16:50.206Z,84.17
2022-11-17T20:19:52.572Z,84.45
2022-11-17T20:22:55.785Z,84.46
2022-11-17T20:25:58.361Z,84.33
2022-11-17T20:29:01.582Z,84.39
2022-11-17T20:32:03.973Z,84.46
2022-11-17T20:35:06.951Z,84.21
2022-11-17T20:38:13.039Z,84.42
2022-11-17T20:41:20.952Z,84.34
2022-11-17T20:44:26.359Z,84.74
2022-11-17T20:47:29.615Z,84.73
2022-11-17T20:50:32.118Z,84.78
2022-11-17T20:53:35.410Z,85.18
2022-11-17T20:56:37.656Z,84.95
2022-11-17T20:59:40.667Z,85.01
2022-11-17T21:02:42.895Z,85.11
2022-11-17T21:05:58.384Z,85.05
2022-11-17T21:09:01.388Z,85.19
2022-11-17T21:12:04.088Z,85.39
2022-11-17T21:15:06.880Z,85.07
2022-11-17T21:18:26.124Z,85.43
2022-11-17T21:21:28.653Z,85.38
2022-11-17T21:24:31.240Z,85.43
2022-11-17T21:27:33.497Z,85.49
2022-11-17T21:30:36.079Z,85.40
2022-11-17T21:33:39.267Z,86.20
2022-11-17T21:36:42.329Z,85.76
2022-11-17T21:39:44.539Z,85.82
2022-11-17T21:42:47.114Z,86.06
2022-11-17T21:45:49.393Z,86.28
2022-11-17T21:48:53.671Z,85.95
2022-11-17T21:51:55.751Z,85.99
2022-11-17T21:54:59.193Z,86.37
2022-11-17T21:58:02.018Z,86.29
2022-11-17T22:01:15.612Z,86.12
2022-11-17T22:04:19.275Z,86.07
2022-11-17T22:07:21.681Z,86.03
2022-11-17T22:10:24.542Z,85.92
2022-11-17T22:13:26.797Z,86.03
2022-11-17T22:16:29.331Z,85.87
2022-11-17T22:19:33.701Z,86.00
2022-11-17T22:22:36.194Z,85.78
2022-11-17T22:25:45.318Z,85.54
2022-11-17T22:28:56.090Z,85.84
2022-11-17T22:31:58.329Z,85.97
2022-11-17T22:35:01.812Z,85.78
2022-11-17T22:38:04.369Z,85.68
2022-11-17T22:41:07.954Z,85.73
2022-11-17T22:44:13.811Z,85.74
2022-11-17T22:47:16.420Z,85.82
2022-11-17T22:50:18.777Z,85.81
2022-11-17T22:53:21.436Z,85.70
2022-11-17T22:56:23.785Z,85.72
2022-11-17T22:59:27.776Z,85.82
2022-11-17T23:02:30.032Z,85.83
2022-11-17T23:05:32.604Z,85.98
2022-11-17T23:08:34.908Z,86.00
2022-11-17T23:11:40.628Z,86.11
2022-11-17T23:14:43.218Z,86.17
2022-11-17T23:17:45.829Z,86.18
2022-11-17T23:20:48.541Z,86.08
2022-11-17T23:23:51.592Z,86.32
2022-11-17T23:26:53.952Z,86.40
2022-11-17T23:29:56.535Z,86.44
2022-11-17T23:32:58.858Z,86.60
2022-11-17T23:36:02.646Z,86.55
2022-11-17T23:39:05.095Z,86.58
2022-11-17T23:42:07.692Z,86.72
2022-11-17T23:45:11.821Z,86.78
2022-11-17T23:48:14.340Z,86.80
2022-11-17T23:51:19.925Z,87.06
2022-11-17T23:54:22.511Z,87.03
2022-11-17T23:57:24.746Z,87.18
